Terminal Aerodrome Forecast
Issued by NWS Mt. Holly, NJ

Home | Current Version | Previous Version | Text Only | Print | Product List | Glossary On
Versions: 1 2 3 4 5 6 7 8 9 10 11 12 13 14 15
000
FTUS41 KPHI 250524
TAFACY
TAF
KACY 250524Z 2506/2606 10011G18KT 2SM RA BR OVC004
     FM251200 09011KT 2SM BR VCSH OVC005
     FM251500 10010KT P6SM OVC004 PROB30 2515/2520 5SM -SHRA
     FM252000 16007KT P6SM OVC011 PROB30 2520/2524 5SM -SHRA
     FM260200 VRB05KT P6SM BKN007=

USA.gov is the U.S. government's official web portal to all federal, state and local government web resources and services.